Time;durP1;ratioP1;P1;durP2;ratioP2;P2;SDS_P1;SDS_P2;PMS_P1;PMS_P2;Temp;Humidity;BMP_temperature;BMP_pressure;BME280_temperature;BME280_humidity;BME280_pressure;Samples;Min_cycle;Max_cycle;Signal;HPM_P1;HPM_P2
2023/07/31 00:00:06;;;;;;;11.73;6.28;;;;;;;27.91;57.85;100743.31;4960552;28;20077;-80
2023/07/31 00:02:35;;;;;;;21.10;6.30;;;;;;;28.02;58.13;100784.41;4961066;28;20061;-79
2023/07/31 00:05:02;;;;;;;9.48;5.65;;;;;;;27.74;58.75;100764.25;4951463;28;20064;-77
2023/07/31 00:07:29;;;;;;;11.75;7.05;;;;;;;27.63;58.87;100755.09;4958353;28;20046;-79
2023/07/31 00:09:59;;;;;;;7.45;5.75;;;;;;;28.11;58.71;100788.38;4950239;28;20064;-79
2023/07/31 00:12:30;;;;;;;9.88;5.35;;;;;;;28.37;57.30;100756.00;4962797;28;20141;-79
2023/07/31 00:14:57;;;;;;;8.25;5.50;;;;;;;28.57;56.93;100770.00;4970417;28;20065;-79
2023/07/31 00:17:24;;;;;;;10.30;6.32;;;;;;;28.50;57.00;100796.66;4959971;28;20050;-78
2023/07/31 00:19:51;;;;;;;12.98;6.75;;;;;;;27.54;57.17;100673.94;4958631;28;20298;-78
2023/07/31 00:22:17;;;;;;;13.25;6.63;;;;;;;27.77;56.49;100728.31;4953700;28;20150;-79
2023/07/31 00:24:44;;;;;;;12.00;6.68;;;;;;;27.89;55.74;100770.03;4958151;28;20132;-78
2023/07/31 00:27:12;;;;;;;17.02;6.80;;;;;;;27.86;54.89;100762.31;4957280;28;20048;-80
2023/07/31 00:29:39;;;;;;;8.80;6.72;;;;;;;27.82;55.30;100773.97;4957754;28;20051;-80
2023/07/31 00:32:08;;;;;;;11.38;6.80;;;;;;;27.75;55.29;100774.09;4958416;28;20053;-80
2023/07/31 00:34:35;;;;;;;13.23;6.80;;;;;;;27.61;55.94;100762.69;4951144;28;20046;-81
2023/07/31 00:37:02;;;;;;;15.23;6.97;;;;;;;27.65;55.66;100779.41;4921663;28;20078;-79
2023/07/31 00:39:34;;;;;;;9.23;6.47;;;;;;;27.35;55.96;100747.75;4907849;28;20046;-80
2023/07/31 00:42:01;;;;;;;12.13;6.32;;;;;;;27.47;56.02;100778.50;4913215;28;20222;-77
2023/07/31 00:44:27;;;;;;;16.35;7.22;;;;;;;27.30;56.10;100761.28;4933650;28;20137;-78
2023/07/31 00:46:56;;;;;;;11.23;6.57;;;;;;;27.36;56.20;100782.13;4902770;28;20054;-78
2023/07/31 00:49:28;;;;;;;13.70;7.72;;;;;;;27.35;56.28;100785.91;4920932;28;20051;-79
2023/07/31 00:51:59;;;;;;;11.75;7.00;;;;;;;27.31;56.48;100784.75;4933116;28;20224;-78
2023/07/31 00:54:26;;;;;;;12.88;7.43;;;;;;;27.30;56.55;100782.25;4931196;28;20343;-78
2023/07/31 00:56:57;;;;;;;12.35;6.85;;;;;;;27.18;56.97;100779.56;4940665;28;20472;-79
2023/07/31 00:59:24;;;;;;;8.90;6.63;;;;;;;27.07;56.93;100765.72;4953937;28;20058;-78
2023/07/31 01:01:51;;;;;;;10.65;6.72;;;;;;;27.37;57.45;100785.69;4956683;28;20160;-78
2023/07/31 01:04:18;;;;;;;12.90;6.25;;;;;;;27.28;57.82;100775.19;4934766;28;20607;-79
2023/07/31 01:07:18;;;;;;;11.93;7.10;;;;;;;27.32;57.95;100780.13;4939659;28;20058;-79
2023/07/31 01:10:18;;;;;;;15.45;6.95;;;;;;;27.33;57.96;100789.94;4943737;28;20041;-79
2023/07/31 01:12:46;;;;;;;11.95;7.30;;;;;;;26.85;58.28;100734.78;4953720;28;20748;-78
2023/07/31 01:15:14;;;;;;;14.00;6.63;;;;;;;27.07;58.60;100790.25;4955065;28;20497;-78
2023/07/31 01:17:46;;;;;;;16.83;7.90;;;;;;;26.87;58.49;100727.19;4949871;28;20046;-78
2023/07/31 01:20:26;;;;;;;10.15;7.03;;;;;;;27.25;58.24;100786.53;4953476;28;20368;-78
2023/07/31 01:23:20;;;;;;;11.45;6.97;;;;;;;27.28;58.29;100794.25;4953305;28;20056;-78
2023/07/31 01:26:12;;;;;;;10.27;7.35;;;;;;;27.22;58.84;100810.75;4958463;28;20058;-78
2023/07/31 01:29:05;;;;;;;12.35;6.88;;;;;;;27.21;59.50;100812.66;4946229;28;20152;-81
2023/07/31 01:31:36;;;;;;;14.50;7.45;;;;;;;27.21;59.37;100812.66;4979376;28;20400;-80
2023/07/31 01:34:03;;;;;;;10.00;7.07;;;;;;;27.17;60.06;100813.34;4953304;28;20682;-78
2023/07/31 01:36:35;;;;;;;10.95;6.38;;;;;;;26.99;61.23;100822.47;4908734;28;20498;-80
2023/07/31 01:39:05;;;;;;;12.30;7.40;;;;;;;26.85;61.59;100813.75;4933293;28;20410;-79
2023/07/31 01:41:32;;;;;;;10.05;6.45;;;;;;;26.95;61.35;100794.91;4920317;28;20047;-78
2023/07/31 01:43:58;;;;;;;16.83;8.07;;;;;;;27.06;61.83;100791.34;4902173;28;20404;-78
2023/07/31 01:46:25;;;;;;;12.70;6.45;;;;;;;26.98;61.63;100791.69;4913967;28;20047;-79
2023/07/31 01:48:52;;;;;;;12.48;7.93;;;;;;;27.08;61.76;100808.25;4915418;28;20664;-79
2023/07/31 01:51:22;;;;;;;12.63;7.28;;;;;;;26.97;62.21;100789.22;4915053;28;20046;-77
2023/07/31 01:53:49;;;;;;;10.25;6.65;;;;;;;26.63;61.93;100738.13;4916884;28;20326;-80
2023/07/31 01:56:16;;;;;;;11.77;7.95;;;;;;;26.96;61.67;100809.34;4928001;28;20058;-77
2023/07/31 01:58:47;;;;;;;12.02;7.22;;;;;;;26.82;61.86;100785.09;4936659;28;20046;-79
2023/07/31 02:01:16;;;;;;;;;;;;;;;26.63;62.57;100776.25;4974692;28;20063;-80
2023/07/31 02:03:45;;;;;;;;;;;;;;;26.81;63.08;100824.28;4941969;28;19943;-79
2023/07/31 02:06:12;;;;;;;11.57;6.90;;;;;;;26.69;62.73;100814.47;4949499;28;19925;-78
2023/07/31 02:08:39;;;;;;;14.05;7.03;;;;;;;26.58;63.08;100814.25;4974859;28;20046;-78
2023/07/31 02:11:07;;;;;;;16.67;7.53;;;;;;;26.53;63.42;100811.41;4954623;28;20242;-79
2023/07/31 02:13:33;;;;;;;12.18;7.55;;;;;;;26.44;63.70;100801.91;4939264;28;20349;-77
2023/07/31 02:16:01;;;;;;;9.70;6.38;;;;;;;26.37;63.78;100796.59;4928251;28;20383;-78
2023/07/31 02:18:32;;;;;;;11.85;7.35;;;;;;;26.57;63.59;100823.47;4931039;28;20198;-78
2023/07/31 02:21:06;;;;;;;14.85;7.07;;;;;;;26.55;63.52;100816.63;4941606;28;20050;-79
2023/07/31 02:23:40;;;;;;;14.55;8.00;;;;;;;26.58;63.73;100824.28;4953212;28;20059;-77
2023/07/31 02:26:06;;;;;;;9.55;6.90;;;;;;;26.37;63.87;100795.75;4936240;28;20282;-78
2023/07/31 02:28:38;;;;;;;20.80;7.07;;;;;;;26.54;63.82;100796.72;4928494;28;20057;-79
2023/07/31 02:31:07;;;;;;;10.25;6.93;;;;;;;26.69;63.85;100826.19;4960242;28;20046;-79
2023/07/31 02:33:37;;;;;;;15.52;7.63;;;;;;;26.70;63.74;100814.25;4949906;28;20077;-80
2023/07/31 02:36:05;;;;;;;13.68;7.22;;;;;;;26.58;63.56;100797.94;4944889;28;20157;-80
2023/07/31 02:38:35;;;;;;;13.00;6.65;;;;;;;26.63;63.59;100795.31;4942215;28;20140;-79
2023/07/31 02:41:05;;;;;;;15.80;8.05;;;;;;;26.80;63.45;100817.19;4945935;28;20054;-80
2023/07/31 02:43:32;;;;;;;13.77;7.23;;;;;;;26.44;62.64;100756.47;4936747;28;20061;-78
2023/07/31 02:45:59;;;;;;;18.52;7.55;;;;;;;26.73;62.02;100811.03;4933579;28;20077;-77
2023/07/31 02:48:26;;;;;;;12.90;6.88;;;;;;;26.34;62.60;100771.75;4928495;28;20058;-78
2023/07/31 02:50:58;;;;;;;11.07;7.00;;;;;;;26.36;63.26;100791.38;4932795;28;20042;-79
2023/07/31 02:53:33;;;;;;;10.52;6.72;;;;;;;26.69;63.28;100820.75;4947879;28;20046;-79
2023/07/31 02:56:00;;;;;;;10.43;6.88;;;;;;;26.81;62.31;100813.41;4948103;28;20050;-79
2023/07/31 02:58:27;;;;;;;15.52;7.38;;;;;;;26.64;62.06;100791.50;4939766;28;20045;-78
2023/07/31 03:00:53;;;;;;;15.52;7.25;;;;;;;26.62;62.00;100788.19;4966778;28;20077;-79
2023/07/31 03:03:20;;;;;;;14.55;7.82;;;;;;;26.81;61.35;100828.91;4955908;28;20515;-76
2023/07/31 03:05:51;;;;;;;14.23;6.80;;;;;;;26.74;61.61;100823.59;4947635;28;20073;-79
2023/07/31 03:08:21;;;;;;;18.00;7.90;;;;;;;26.54;61.70;100823.97;4961422;28;20054;-79
2023/07/31 03:10:48;;;;;;;11.83;7.20;;;;;;;26.25;62.00;100793.03;4974364;28;20137;-77
2023/07/31 03:13:15;;;;;;;9.15;6.93;;;;;;;26.35;62.62;100808.78;4943635;28;20388;-77
2023/07/31 03:15:43;;;;;;;14.50;7.85;;;;;;;26.35;62.25;100806.06;4936968;28;20347;-77
2023/07/31 03:18:10;;;;;;;17.02;8.45;;;;;;;26.37;61.85;100795.75;4945033;28;20452;-78
2023/07/31 03:20:37;;;;;;;17.27;7.32;;;;;;;26.55;61.73;100828.31;4930929;28;20050;-77
2023/07/31 03:23:07;;;;;;;13.65;8.10;;;;;;;26.42;61.88;100821.19;4926075;28;20054;-79
2023/07/31 03:25:35;;;;;;;11.93;7.72;;;;;;;26.46;62.41;100813.41;4948415;28;20486;-77
2023/07/31 03:28:02;;;;;;;14.27;7.25;;;;;;;26.57;61.81;100818.03;4953896;28;20417;-78
2023/07/31 03:30:29;;;;;;;13.02;8.32;;;;;;;26.36;61.83;100785.94;4942834;28;20547;-78
2023/07/31 03:32:56;;;;;;;20.88;7.95;;;;;;;26.52;61.44;100823.31;4955053;28;20056;-77
2023/07/31 03:35:26;;;;;;;13.63;8.43;;;;;;;26.46;61.33;100821.56;4927742;28;20046;-79
2023/07/31 03:37:57;;;;;;;10.68;8.20;;;;;;;26.48;61.25;100824.03;4939637;28;20249;-80
2023/07/31 03:40:24;;;;;;;18.25;8.45;;;;;;;26.47;61.54;100820.50;4938916;28;20054;-77
2023/07/31 03:42:51;;;;;;;15.52;8.27;;;;;;;26.54;61.26;100821.22;4931952;28;20058;-79
2023/07/31 03:45:17;;;;;;;11.50;6.70;;;;;;;26.69;61.91;100814.47;4919899;28;20491;-78
2023/07/31 03:47:47;;;;;;;16.42;8.18;;;;;;;26.30;60.58;100729.75;4959118;28;20045;-80
2023/07/31 03:50:14;;;;;;;16.30;7.93;;;;;;;26.80;59.95;100821.81;4942013;28;20050;-78
2023/07/31 03:52:41;;;;;;;17.27;7.82;;;;;;;26.90;59.46;100840.28;4941074;28;20054;-77
2023/07/31 03:55:09;;;;;;;17.30;7.85;;;;;;;26.70;59.48;100840.63;4941306;28;20087;-79
2023/07/31 03:57:36;;;;;;;12.38;7.40;;;;;;;26.53;61.05;100827.75;4933158;28;20490;-77
2023/07/31 04:00:03;;;;;;;19.85;8.63;;;;;;;26.23;61.05;100787.81;4965101;28;20529;-78
2023/07/31 04:02:32;;;;;;;13.73;8.05;;;;;;;26.46;60.88;100851.50;4938108;28;20979;-77
2023/07/31 04:04:59;;;;;;;12.00;7.40;;;;;;;26.39;61.42;100858.97;4936697;28;20046;-79
2023/07/31 04:07:31;;;;;;;13.52;7.00;;;;;;;26.31;61.29;100859.28;4931811;28;20134;-80
2023/07/31 04:10:04;;;;;;;20.13;9.07;;;;;;;25.89;61.37;100805.75;4927144;28;20054;-77
2023/07/31 04:12:31;;;;;;;14.85;7.97;;;;;;;26.07;61.36;100837.50;4934400;28;20050;-79
2023/07/31 04:14:58;;;;;;;11.35;7.00;;;;;;;25.32;62.27;100716.44;4943764;28;20054;-80
2023/07/31 04:17:25;;;;;;;15.18;8.23;;;;;;;26.19;61.84;100851.09;4955242;28;20360;-78
2023/07/31 04:19:56;;;;;;;15.93;7.57;;;;;;;26.17;61.58;100854.06;4944145;28;20053;-78
2023/07/31 04:22:23;;;;;;;17.63;8.00;;;;;;;26.11;61.98;100851.44;4936889;28;20718;-77
2023/07/31 04:24:59;;;;;;;12.98;8.45;;;;;;;26.00;62.04;100840.31;4948356;28;20331;-76
2023/07/31 04:27:26;;;;;;;17.05;8.57;;;;;;;25.81;62.03;100822.38;4960065;28;20391;-78
2023/07/31 04:29:52;;;;;;;16.70;8.43;;;;;;;25.94;62.17;100860.28;4929976;28;20109;-78
2023/07/31 04:32:21;;;;;;;15.40;7.95;;;;;;;25.96;62.41;100860.03;4948461;28;20128;-80
2023/07/31 04:34:48;;;;;;;17.38;8.65;;;;;;;25.95;62.56;100847.53;4947370;28;20282;-79
2023/07/31 04:37:15;;;;;;;13.13;7.75;;;;;;;25.97;62.89;100839.94;4940388;28;20057;-79
2023/07/31 04:39:44;;;;;;;14.38;6.97;;;;;;;25.92;62.82;100831.66;4964994;28;20050;-76
2023/07/31 04:42:10;;;;;;;18.25;9.30;;;;;;;25.98;62.40;100847.06;4932088;28;20352;-79
2023/07/31 04:44:37;;;;;;;11.10;8.68;;;;;;;25.34;62.12;100755.09;4940970;28;20050;-78
2023/07/31 04:47:04;;;;;;;17.60;8.68;;;;;;;25.86;62.83;100843.47;4927992;28;20502;-78
2023/07/31 04:49:32;;;;;;;14.85;8.60;;;;;;;25.90;62.99;100866.41;4920550;28;20565;-79
2023/07/31 04:51:59;;;;;;;12.75;8.52;;;;;;;25.91;62.99;100873.50;4916231;28;20057;-80
2023/07/31 04:54:26;;;;;;;12.52;8.27;;;;;;;25.91;62.97;100849.03;4897681;28;20046;-78
2023/07/31 04:56:53;;;;;;;21.58;8.95;;;;;;;26.15;63.04;100868.97;4904576;28;20054;-78
2023/07/31 04:59:20;;;;;;;15.82;8.68;;;;;;;26.34;62.89;100862.38;4947197;28;20149;-80
2023/07/31 05:01:47;;;;;;;22.52;9.02;;;;;;;26.47;63.12;100868.66;4927852;28;20084;-78
2023/07/31 05:04:14;;;;;;;26.35;9.93;;;;;;;26.37;63.78;100850.19;4952648;28;20054;-79
2023/07/31 05:06:41;;;;;;;12.75;7.53;;;;;;;26.28;64.38;100852.41;4947786;28;20132;-80
2023/07/31 05:09:12;;;;;;;10.85;7.80;;;;;;;26.33;64.37;100865.31;4936747;28;20054;-80
2023/07/31 05:11:40;;;;;;;17.98;8.82;;;;;;;26.30;63.70;100873.97;4954777;28;20046;-80
2023/07/31 05:14:08;;;;;;;21.40;8.93;;;;;;;26.23;63.95;100861.28;4949938;28;20053;-79
2023/07/31 05:16:35;;;;;;;17.73;9.00;;;;;;;26.31;63.63;100875.63;4940847;28;20529;-78
2023/07/31 05:19:02;;;;;;;12.75;8.45;;;;;;;26.01;62.33;100835.69;4954134;28;20130;-80
2023/07/31 05:21:29;;;;;;;15.20;7.68;;;;;;;26.20;63.09;100859.03;4937440;28;20049;-77
2023/07/31 05:23:55;;;;;;;18.40;8.85;;;;;;;26.22;62.84;100880.59;4934070;28;20057;-79
2023/07/31 05:26:22;;;;;;;16.50;8.88;;;;;;;26.19;62.69;100870.16;4938128;28;20270;-77
2023/07/31 05:28:49;;;;;;;14.70;8.43;;;;;;;26.11;61.95;100860.44;4940433;28;20186;-77
2023/07/31 05:31:22;;;;;;;15.00;7.68;;;;;;;26.10;61.34;100861.50;4952898;28;20069;-79
2023/07/31 05:33:52;;;;;;;17.00;8.25;;;;;;;26.12;61.19;100870.28;4960478;28;20047;-78
2023/07/31 05:36:19;;;;;;;12.02;8.10;;;;;;;26.21;61.19;100885.19;4923473;28;20046;-79
2023/07/31 05:38:45;;;;;;;17.67;8.18;;;;;;;26.20;61.54;100879.97;4946403;28;20081;-78
2023/07/31 05:41:13;;;;;;;27.27;8.55;;;;;;;26.16;61.60;100879.59;4933487;28;20492;-77
2023/07/31 05:43:40;;;;;;;24.23;9.05;;;;;;;26.18;61.72;100874.75;4939640;28;20046;-78
2023/07/31 05:46:06;;;;;;;12.00;8.20;;;;;;;26.22;61.85;100880.59;4955958;28;20611;-78
2023/07/31 05:48:37;;;;;;;14.63;8.18;;;;;;;26.33;62.18;100871.59;4923089;28;20054;-78
2023/07/31 05:51:04;;;;;;;16.83;8.57;;;;;;;26.50;62.40;100890.78;4954580;28;20524;-78
2023/07/31 05:53:31;;;;;;;17.25;8.80;;;;;;;26.44;62.46;100856.34;4929921;28;20054;-78
2023/07/31 05:55:57;;;;;;;15.38;8.25;;;;;;;26.34;62.60;100850.69;4936465;28;20050;-77
2023/07/31 05:58:25;;;;;;;21.15;8.52;;;;;;;26.51;62.52;100865.25;4931790;28;20058;-78
2023/07/31 06:00:55;;;;;;;16.15;8.38;;;;;;;26.42;62.84;100842.16;4967596;28;20381;-79
2023/07/31 06:03:21;;;;;;;15.02;7.85;;;;;;;26.76;62.55;100886.00;4942717;28;20137;-76
2023/07/31 06:05:48;;;;;;;13.80;7.20;;;;;;;26.74;63.00;100877.22;4940334;28;20132;-77
2023/07/31 06:08:15;;;;;;;10.52;7.03;;;;;;;26.97;62.42;100874.50;4953962;28;20432;-78
2023/07/31 06:10:42;;;;;;;11.30;7.40;;;;;;;27.42;61.21;100876.56;4964258;28;20057;-77
2023/07/31 06:13:09;;;;;;;13.15;7.25;;;;;;;27.49;60.40;100851.88;4980740;28;20081;-78
2023/07/31 06:15:40;;;;;;;15.82;6.70;;;;;;;27.63;61.10;100863.34;4959061;28;20053;-79
2023/07/31 06:18:13;;;;;;;11.35;6.38;;;;;;;27.84;60.25;100881.78;4957175;28;20073;-79
2023/07/31 06:20:42;;;;;;;11.48;6.28;;;;;;;27.48;59.95;100818.34;4944227;28;20046;-81
2023/07/31 06:23:11;;;;;;;11.88;6.57;;;;;;;28.15;58.83;100867.84;4915165;28;20076;-79
2023/07/31 06:25:40;;;;;;;8.45;5.50;;;;;;;28.08;58.43;100854.34;4950899;28;20043;-76
2023/07/31 06:28:07;;;;;;;9.45;5.80;;;;;;;28.25;58.25;100857.91;4942531;28;20136;-80
2023/07/31 06:30:33;;;;;;;10.10;6.18;;;;;;;27.67;58.50;100778.06;4926634;28;20050;-77
2023/07/31 06:33:00;;;;;;;7.90;6.07;;;;;;;28.23;57.98;100843.72;4949015;28;20140;-79
2023/07/31 06:35:27;;;;;;;10.23;6.00;;;;;;;28.06;58.80;100851.03;4948772;28;20069;-79
2023/07/31 06:37:54;;;;;;;11.63;6.30;;;;;;;28.11;58.25;100871.06;4934903;28;20046;-78
2023/07/31 06:40:22;;;;;;;7.15;5.65;;;;;;;27.73;59.24;100866.25;4945050;28;20054;-78
2023/07/31 06:42:49;;;;;;;7.68;5.82;;;;;;;27.37;59.26;100811.03;4929598;28;20497;-78
2023/07/31 06:45:16;;;;;;;9.27;5.80;;;;;;;28.01;57.71;100821.78;4939846;28;20442;-79
2023/07/31 06:47:45;;;;;;;8.98;5.20;;;;;;;28.07;58.34;100871.81;4926329;28;20046;-79
2023/07/31 06:50:16;;;;;;;12.90;5.32;;;;;;;28.14;58.97;100897.03;4934746;28;20050;-80
2023/07/31 06:52:43;;;;;;;14.35;5.57;;;;;;;28.08;58.71;100890.66;4947988;28;20155;-78
2023/07/31 06:55:18;;;;;;;8.60;5.28;;;;;;;28.46;57.51;100900.06;4941222;28;20054;-79
2023/07/31 06:57:46;;;;;;;10.95;4.63;;;;;;;28.20;57.50;100846.91;4929853;28;20498;-78
2023/07/31 07:00:13;;;;;;;8.43;4.90;;;;;;;28.49;56.43;100838.66;4976088;28;20049;-78
2023/07/31 07:02:40;;;;;;;10.63;5.35;;;;;;;28.49;56.92;100904.19;4976151;28;20057;-78
2023/07/31 07:05:13;;;;;;;13.00;5.60;;;;;;;28.50;57.00;100890.31;4950068;28;20604;-78
2023/07/31 07:07:43;;;;;;;7.03;5.57;;;;;;;28.67;56.23;100882.09;4982190;28;20214;-79
2023/07/31 07:10:10;;;;;;;11.60;6.20;;;;;;;28.59;56.13;100854.38;4978991;28;20046;-78
2023/07/31 07:12:42;;;;;;;9.85;4.65;;;;;;;28.47;56.22;100879.03;4962398;28;20521;-79
2023/07/31 07:15:11;;;;;;;9.90;5.68;;;;;;;28.78;56.18;100888.53;4955530;28;20065;-79
2023/07/31 07:17:38;;;;;;;7.20;5.00;;;;;;;28.73;55.58;100844.75;4957264;28;20077;-78
2023/07/31 07:20:05;;;;;;;8.80;4.80;;;;;;;28.82;55.33;100884.25;4961956;28;20100;-78
2023/07/31 07:22:35;;;;;;;7.15;5.28;;;;;;;28.86;55.51;100887.28;4961573;28;20049;-79
2023/07/31 07:25:04;;;;;;;9.85;4.55;;;;;;;28.78;54.96;100913.13;4951140;28;20129;-78
2023/07/31 07:27:31;;;;;;;10.57;4.82;;;;;;;28.98;55.44;100907.13;4943055;28;20672;-78
2023/07/31 07:29:58;;;;;;;7.25;4.97;;;;;;;28.91;54.82;100904.59;4948752;28;20046;-79
2023/07/31 07:32:25;;;;;;;5.97;4.57;;;;;;;29.10;55.25;100905.13;4945685;28;20263;-79
2023/07/31 07:34:51;;;;;;;9.98;6.82;;;;;;;28.92;54.94;100911.69;4956521;28;20046;-79
2023/07/31 07:37:18;;;;;;;9.80;4.82;;;;;;;28.76;55.21;100838.78;4960177;28;20378;-78
2023/07/31 07:39:48;;;;;;;7.03;4.97;;;;;;;29.18;54.64;100896.53;4935482;28;20046;-78
2023/07/31 07:42:14;;;;;;;7.38;5.05;;;;;;;28.29;55.50;100801.75;4944290;28;20414;-79
2023/07/31 07:44:43;;;;;;;5.55;5.03;;;;;;;28.64;56.07;100885.31;4936481;28;20047;-79
2023/07/31 07:47:10;;;;;;;8.95;4.85;;;;;;;29.15;55.12;100905.22;4941627;28;20051;-78
2023/07/31 07:49:37;;;;;;;7.03;5.10;;;;;;;28.89;55.77;100892.25;4916804;28;20313;-79
2023/07/31 07:52:05;;;;;;;9.98;5.60;;;;;;;28.83;55.88;100896.81;4931537;28;20073;-80
2023/07/31 07:54:33;;;;;;;5.90;4.18;;;;;;;28.98;55.84;100907.13;4913485;28;20050;-81
2023/07/31 07:57:00;;;;;;;7.20;4.47;;;;;;;28.69;55.20;100849.06;4945852;28;20472;-78
2023/07/31 07:59:26;;;;;;;7.60;4.85;;;;;;;29.16;55.14;100909.59;4947759;28;20104;-78
2023/07/31 08:01:53;;;;;;;6.43;4.28;;;;;;;28.99;55.53;100906.06;4948323;28;20045;-80
2023/07/31 08:04:20;;;;;;;7.93;4.55;;;;;;;29.01;55.27;100873.00;4928946;28;20486;-79
2023/07/31 08:06:47;;;;;;;9.90;3.75;;;;;;;29.16;55.30;100909.59;4964284;28;20284;-78
2023/07/31 08:09:14;;;;;;;8.95;5.07;;;;;;;28.95;55.89;100903.00;4943406;28;20357;-79
2023/07/31 08:11:45;;;;;;;9.13;4.43;;;;;;;28.95;56.12;100918.56;4966848;28;20133;-80
2023/07/31 08:14:12;;;;;;;10.85;4.68;;;;;;;28.97;55.99;100910.94;4965972;28;20455;-79
2023/07/31 08:16:38;;;;;;;5.78;5.05;;;;;;;29.12;55.68;100927.59;4951265;28;20098;-79
2023/07/31 08:19:06;;;;;;;7.20;4.38;;;;;;;28.86;55.87;100900.94;4964083;28;20052;-80
2023/07/31 08:21:33;;;;;;;6.05;4.57;;;;;;;28.84;55.61;100892.19;4939937;28;20437;-81
2023/07/31 08:24:00;;;;;;;6.10;4.55;;;;;;;28.77;55.82;100868.59;4946817;28;20626;-80
2023/07/31 08:26:31;;;;;;;6.15;4.63;;;;;;;29.48;54.73;100914.38;4931204;28;20054;-80
2023/07/31 08:29:03;;;;;;;9.68;4.38;;;;;;;29.40;54.34;100898.44;4940891;28;20306;-80
2023/07/31 08:31:32;;;;;;;6.03;4.35;;;;;;;29.17;54.89;100894.84;4969659;28;20535;-78
2023/07/31 08:33:59;;;;;;;6.22;4.32;;;;;;;29.00;54.97;100885.03;4934353;28;20320;-81
2023/07/31 08:36:26;;;;;;;7.90;4.45;;;;;;;29.12;55.33;100902.97;4924580;28;20142;-79
2023/07/31 08:39:00;;;;;;;6.82;4.15;;;;;;;29.02;55.61;100889.16;4914247;28;20050;-80
2023/07/31 08:41:42;;;;;;;5.30;4.35;;;;;;;29.52;54.97;100907.34;4927653;28;20114;-79
2023/07/31 08:44:16;;;;;;;7.50;4.55;;;;;;;29.48;55.00;100905.38;4923020;28;20533;-79
2023/07/31 08:46:51;;;;;;;7.10;4.68;;;;;;;29.73;53.95;100896.66;4916510;28;20230;-81
2023/07/31 08:49:20;;;;;;;3.90;3.50;;;;;;;30.03;53.02;100896.97;4925220;28;20081;-78
2023/07/31 08:51:50;;;;;;;6.70;4.22;;;;;;;29.53;54.15;100880.81;4914619;28;20054;-79
2023/07/31 08:54:17;;;;;;;8.88;4.45;;;;;;;29.43;54.29;100876.03;4926962;28;20582;-77
2023/07/31 08:56:44;;;;;;;6.25;4.45;;;;;;;29.14;54.79;100857.09;4915364;28;20446;-80
2023/07/31 08:59:12;;;;;;;10.73;4.53;;;;;;;29.17;55.15;100878.44;4955667;28;20291;-79
2023/07/31 09:01:49;;;;;;;7.55;4.60;;;;;;;29.09;55.18;100859.75;4938272;28;20131;-79
2023/07/31 09:04:19;;;;;;;6.38;4.57;;;;;;;29.44;54.57;100880.41;4930843;28;20049;-80
2023/07/31 09:06:48;;;;;;;8.70;4.43;;;;;;;29.57;54.34;100899.19;4974341;28;20875;-78
2023/07/31 09:09:20;;;;;;;5.47;3.83;;;;;;;29.67;54.05;100884.00;4933024;28;20150;-79
2023/07/31 09:11:51;;;;;;;5.18;4.22;;;;;;;29.34;53.86;100850.22;4922687;28;20054;-79
2023/07/31 09:14:26;;;;;;;10.93;4.32;;;;;;;29.49;54.67;100905.13;4935254;28;20064;-78
2023/07/31 09:16:54;;;;;;;8.70;4.32;;;;;;;29.57;55.00;100899.19;4948824;28;20486;-80
2023/07/31 09:19:37;;;;;;;6.47;4.18;;;;;;;29.56;54.48;100885.75;4933645;28;20647;-80
2023/07/31 09:22:07;;;;;;;5.18;3.70;;;;;;;30.09;52.78;100892.34;4938249;28;20078;-79
2023/07/31 09:24:36;;;;;;;8.18;3.70;;;;;;;29.82;53.34;100873.22;4927666;28;20058;-80
2023/07/31 09:27:05;;;;;;;6.15;4.28;;;;;;;29.60;53.54;100876.78;4961045;28;20046;-79
2023/07/31 09:29:32;;;;;;;4.40;3.55;;;;;;;29.82;53.13;100895.94;4966864;28;20086;-78
2023/07/31 09:31:59;;;;;;;6.80;4.95;;;;;;;29.59;53.43;100896.22;4939310;28;20057;-78
2023/07/31 09:34:37;;;;;;;5.63;4.57;;;;;;;29.44;53.86;100899.56;4925377;28;20254;-79
2023/07/31 09:37:06;;;;;;;7.75;4.47;;;;;;;29.40;53.51;100860.16;4912239;28;20046;-77
2023/07/31 09:39:46;;;;;;;4.85;4.00;;;;;;;29.86;52.59;100873.50;4929049;28;20503;-78
2023/07/31 09:42:24;;;;;;;6.72;4.00;;;;;;;29.88;52.66;100872.19;4916456;28;20517;-79
2023/07/31 09:45:11;;;;;;;8.18;4.72;;;;;;;29.80;52.26;100876.19;4899637;28;20101;-80
2023/07/31 09:47:56;;;;;;;7.57;4.63;;;;;;;29.90;52.98;100889.16;4895300;28;20355;-80
2023/07/31 09:50:24;;;;;;;6.15;5.13;;;;;;;30.07;52.36;100880.03;4932534;28;20105;-78
2023/07/31 09:52:51;;;;;;;6.22;4.65;;;;;;;30.09;52.37;100884.16;4917609;28;20402;-78
2023/07/31 09:55:19;;;;;;;8.60;5.70;;;;;;;29.99;52.24;100876.66;4931928;28;20051;-79
2023/07/31 09:57:48;;;;;;;8.18;5.18;;;;;;;30.24;50.99;100884.31;4911308;28;20051;-77
2023/07/31 10:00:18;;;;;;;9.50;4.75;;;;;;;30.25;51.24;100893.38;4913790;28;20058;-79
2023/07/31 10:02:47;;;;;;;5.60;4.32;;;;;;;30.30;51.44;100863.28;4918957;28;20387;-79
2023/07/31 10:05:16;;;;;;;5.60;4.63;;;;;;;30.23;51.41;100857.16;4947235;28;20248;-79
2023/07/31 10:07:53;;;;;;;11.13;5.00;;;;;;;30.10;51.58;100842.03;4932250;28;20243;-79
2023/07/31 10:10:22;;;;;;;7.63;4.47;;;;;;;30.60;50.83;100856.38;4930103;28;20042;-79
2023/07/31 10:12:53;;;;;;;5.65;4.30;;;;;;;30.52;50.75;100846.75;4939861;28;20046;-78
2023/07/31 10:15:22;;;;;;;7.35;4.15;;;;;;;30.60;50.61;100856.38;4952962;28;20102;-79
2023/07/31 10:17:50;;;;;;;5.55;4.95;;;;;;;30.41;51.46;100875.94;4933881;28;20082;-79
2023/07/31 10:20:17;;;;;;;7.95;4.78;;;;;;;30.76;50.17;100877.31;4933122;28;20137;-78
2023/07/31 10:22:48;;;;;;;7.03;5.78;;;;;;;30.36;50.94;100862.22;4933550;28;20050;-79
2023/07/31 10:25:16;;;;;;;5.95;4.63;;;;;;;30.72;50.48;100873.44;4925681;28;20054;-78
2023/07/31 10:27:42;;;;;;;7.05;5.05;;;;;;;30.56;50.45;100838.81;4932364;28;20058;-79
2023/07/31 10:30:14;;;;;;;6.68;4.78;;;;;;;30.60;49.98;100796.09;4932000;28;20391;-79
2023/07/31 10:32:45;;;;;;;7.10;4.97;;;;;;;30.76;50.41;100860.88;4941710;28;20039;-80
2023/07/31 10:35:12;;;;;;;7.43;5.43;;;;;;;30.85;50.07;100851.09;4931979;28;20049;-78
2023/07/31 10:37:44;;;;;;;11.05;5.13;;;;;;;30.50;50.85;100846.16;4933295;28;20482;-80
2023/07/31 10:40:26;;;;;;;6.45;5.35;;;;;;;30.45;50.57;100846.97;4936863;28;20305;-78
2023/07/31 10:42:55;;;;;;;10.82;5.10;;;;;;;30.60;50.40;100837.19;4933693;28;20142;-80
2023/07/31 10:45:33;;;;;;;7.43;4.88;;;;;;;30.52;50.30;100821.28;4932723;28;20054;-80
2023/07/31 10:48:01;;;;;;;8.75;4.90;;;;;;;30.58;50.11;100842.13;4929402;28;20046;-79
2023/07/31 10:50:29;;;;;;;9.23;5.07;;;;;;;30.66;50.24;100847.13;4932318;28;20527;-78
2023/07/31 10:53:03;;;;;;;12.98;5.70;;;;;;;30.92;49.98;100839.03;4926541;28;20050;-78
2023/07/31 10:55:52;;;;;;;6.35;4.93;;;;;;;31.21;49.15;100793.66;4933190;28;20054;-80
2023/07/31 10:58:23;;;;;;;11.05;5.07;;;;;;;31.20;48.16;100783.78;4933158;28;20438;-78
2023/07/31 11:00:58;;;;;;;6.40;4.63;;;;;;;31.50;48.13;100848.06;4937476;28;20482;-79
2023/07/31 11:03:26;;;;;;;6.05;5.03;;;;;;;31.31;48.85;100844.97;4939805;28;20073;-78
2023/07/31 11:06:03;;;;;;;8.10;5.53;;;;;;;30.94;49.70;100843.16;4941020;28;20287;-79
2023/07/31 11:08:35;;;;;;;11.57;5.78;;;;;;;30.82;49.93;100848.00;4959460;28;20042;-81
2023/07/31 11:11:02;;;;;;;10.57;5.60;;;;;;;30.93;49.87;100848.94;4940129;28;20404;-79
2023/07/31 11:13:29;;;;;;;6.70;4.82;;;;;;;31.18;48.83;100848.22;4943164;28;20043;-79
2023/07/31 11:15:56;;;;;;;9.48;6.00;;;;;;;30.57;49.61;100796.66;4942408;28;20287;-80
2023/07/31 11:18:27;;;;;;;9.15;5.47;;;;;;;30.79;49.41;100819.22;4954534;28;20897;-80
2023/07/31 11:20:53;;;;;;;10.82;5.55;;;;;;;31.05;48.98;100831.19;4938924;28;20050;-79
2023/07/31 11:23:22;;;;;;;8.05;5.20;;;;;;;31.20;48.21;100775.56;4956315;28;20042;-79
2023/07/31 11:25:50;;;;;;;10.93;5.75;;;;;;;31.64;48.04;100830.00;4941159;28;20046;-79
2023/07/31 11:28:21;;;;;;;9.80;5.57;;;;;;;31.39;48.79;100827.19;4918355;28;20396;-79
2023/07/31 11:30:48;;;;;;;8.20;4.80;;;;;;;31.48;48.57;100829.16;4901112;28;20047;-80